sensor_id;sensor_type;location;lat;lon;timestamp;P1;durP1;ratioP1;P2;durP2;ratioP2
23384;SDS011;11865;45.394;10.978;2022-10-01T00:02:05;8.43;;;7.40;;
23384;SDS011;11865;45.394;10.978;2022-10-01T00:04:34;8.90;;;6.05;;
23384;SDS011;11865;45.394;10.978;2022-10-01T00:07:05;10.90;;;6.20;;
23384;SDS011;11865;45.394;10.978;2022-10-01T00:09:36;6.40;;;5.28;;
23384;SDS011;11865;45.394;10.978;2022-10-01T00:12:05;7.22;;;5.40;;
23384;SDS011;11865;45.394;10.978;2022-10-01T00:14:33;10.07;;;4.47;;
23384;SDS011;11865;45.394;10.978;2022-10-01T00:17:04;8.30;;;4.57;;
23384;SDS011;11865;45.394;10.978;2022-10-01T00:19:31;7.00;;;4.10;;
23384;SDS011;11865;45.394;10.978;2022-10-01T00:21:59;7.30;;;4.32;;
23384;SDS011;11865;45.394;10.978;2022-10-01T00:24:26;6.60;;;4.00;;
23384;SDS011;11865;45.394;10.978;2022-10-01T00:26:53;7.35;;;4.50;;
23384;SDS011;11865;45.394;10.978;2022-10-01T00:29:21;6.00;;;4.28;;
23384;SDS011;11865;45.394;10.978;2022-10-01T00:31:48;6.50;;;3.83;;
23384;SDS011;11865;45.394;10.978;2022-10-01T00:34:16;5.40;;;3.95;;
23384;SDS011;11865;45.394;10.978;2022-10-01T00:36:43;5.68;;;3.80;;
23384;SDS011;11865;45.394;10.978;2022-10-01T00:39:11;4.10;;;3.70;;
23384;SDS011;11865;45.394;10.978;2022-10-01T00:41:38;4.63;;;3.83;;
23384;SDS011;11865;45.394;10.978;2022-10-01T00:47:11;5.07;;;3.80;;
23384;SDS011;11865;45.394;10.978;2022-10-01T00:49:59;4.82;;;3.95;;
23384;SDS011;11865;45.394;10.978;2022-10-01T00:52:36;6.35;;;3.97;;
23384;SDS011;11865;45.394;10.978;2022-10-01T00:55:07;6.05;;;3.80;;
23384;SDS011;11865;45.394;10.978;2022-10-01T00:57:39;5.70;;;4.10;;
23384;SDS011;11865;45.394;10.978;2022-10-01T01:00:08;7.25;;;4.28;;
23384;SDS011;11865;45.394;10.978;2022-10-01T01:02:39;6.07;;;3.85;;
23384;SDS011;11865;45.394;10.978;2022-10-01T01:05:07;6.03;;;4.13;;
23384;SDS011;11865;45.394;10.978;2022-10-01T01:07:38;7.35;;;3.90;;
23384;SDS011;11865;45.394;10.978;2022-10-01T01:10:13;6.20;;;4.22;;
23384;SDS011;11865;45.394;10.978;2022-10-01T01:15:54;4.63;;;3.90;;
23384;SDS011;11865;45.394;10.978;2022-10-01T01:18:27;6.70;;;4.20;;
23384;SDS011;11865;45.394;10.978;2022-10-01T01:29:48;8.80;;;5.32;;
23384;SDS011;11865;45.394;10.978;2022-10-01T01:32:25;20.25;;;8.73;;
23384;SDS011;11865;45.394;10.978;2022-10-01T01:34:56;20.52;;;9.20;;
23384;SDS011;11865;45.394;10.978;2022-10-01T01:37:28;19.58;;;8.52;;
23384;SDS011;11865;45.394;10.978;2022-10-01T01:40:00;13.75;;;8.20;;
23384;SDS011;11865;45.394;10.978;2022-10-01T01:42:32;18.02;;;8.18;;
23384;SDS011;11865;45.394;10.978;2022-10-01T01:45:03;15.25;;;7.55;;
23384;SDS011;11865;45.394;10.978;2022-10-01T01:47:36;9.30;;;6.80;;
23384;SDS011;11865;45.394;10.978;2022-10-01T01:50:05;10.52;;;6.10;;
23384;SDS011;11865;45.394;10.978;2022-10-01T01:52:33;10.82;;;6.20;;
23384;SDS011;11865;45.394;10.978;2022-10-01T01:55:01;10.48;;;6.28;;
23384;SDS011;11865;45.394;10.978;2022-10-01T01:57:38;10.35;;;6.53;;
23384;SDS011;11865;45.394;10.978;2022-10-01T02:00:08;10.30;;;6.18;;
23384;SDS011;11865;45.394;10.978;2022-10-01T02:02:38;8.60;;;7.07;;
23384;SDS011;11865;45.394;10.978;2022-10-01T02:05:08;9.65;;;6.57;;
23384;SDS011;11865;45.394;10.978;2022-10-01T02:10:57;8.82;;;7.18;;
23384;SDS011;11865;45.394;10.978;2022-10-01T02:16:42;11.02;;;7.78;;
23384;SDS011;11865;45.394;10.978;2022-10-01T02:22:05;7.57;;;6.82;;
23384;SDS011;11865;45.394;10.978;2022-10-01T02:24:40;7.05;;;6.32;;
23384;SDS011;11865;45.394;10.978;2022-10-01T02:27:14;7.47;;;6.43;;
23384;SDS011;11865;45.394;10.978;2022-10-01T02:29:49;9.48;;;6.85;;
23384;SDS011;11865;45.394;10.978;2022-10-01T02:32:17;10.20;;;6.40;;
23384;SDS011;11865;45.394;10.978;2022-10-01T02:34:46;7.70;;;6.22;;
23384;SDS011;11865;45.394;10.978;2022-10-01T02:37:17;10.35;;;5.85;;
23384;SDS011;11865;45.394;10.978;2022-10-01T02:39:48;7.07;;;5.37;;
23384;SDS011;11865;45.394;10.978;2022-10-01T02:42:18;7.60;;;5.22;;
23384;SDS011;11865;45.394;10.978;2022-10-01T02:44:49;7.65;;;5.10;;
23384;SDS011;11865;45.394;10.978;2022-10-01T02:49:54;7.22;;;5.85;;
23384;SDS011;11865;45.394;10.978;2022-10-01T02:52:26;7.13;;;5.05;;
23384;SDS011;11865;45.394;10.978;2022-10-01T02:55:00;6.63;;;5.60;;
23384;SDS011;11865;45.394;10.978;2022-10-01T02:57:31;8.43;;;5.78;;
23384;SDS011;11865;45.394;10.978;2022-10-01T02:59:59;6.68;;;5.45;;
23384;SDS011;11865;45.394;10.978;2022-10-01T03:02:32;6.50;;;5.50;;
23384;SDS011;11865;45.394;10.978;2022-10-01T03:05:00;7.93;;;5.72;;
23384;SDS011;11865;45.394;10.978;2022-10-01T03:07:29;9.77;;;5.90;;
23384;SDS011;11865;45.394;10.978;2022-10-01T03:10:03;5.95;;;5.35;;
23384;SDS011;11865;45.394;10.978;2022-10-01T03:12:31;8.37;;;5.73;;
23384;SDS011;11865;45.394;10.978;2022-10-01T03:14:59;8.40;;;6.05;;
23384;SDS011;11865;45.394;10.978;2022-10-01T03:17:26;7.35;;;5.93;;
23384;SDS011;11865;45.394;10.978;2022-10-01T03:19:54;9.65;;;7.28;;
23384;SDS011;11865;45.394;10.978;2022-10-01T03:22:21;11.05;;;7.43;;
23384;SDS011;11865;45.394;10.978;2022-10-01T03:24:49;10.02;;;8.82;;
23384;SDS011;11865;45.394;10.978;2022-10-01T03:27:18;14.90;;;10.70;;
23384;SDS011;11865;45.394;10.978;2022-10-01T03:29:47;19.63;;;11.00;;
23384;SDS011;11865;45.394;10.978;2022-10-01T03:32:15;13.45;;;9.70;;
23384;SDS011;11865;45.394;10.978;2022-10-01T03:34:43;15.30;;;9.45;;
23384;SDS011;11865;45.394;10.978;2022-10-01T03:37:10;12.48;;;8.73;;
23384;SDS011;11865;45.394;10.978;2022-10-01T03:39:38;16.20;;;9.82;;
23384;SDS011;11865;45.394;10.978;2022-10-01T03:42:05;18.00;;;11.02;;
23384;SDS011;11865;45.394;10.978;2022-10-01T03:44:33;11.98;;;9.15;;
23384;SDS011;11865;45.394;10.978;2022-10-01T03:47:00;14.57;;;10.43;;
23384;SDS011;11865;45.394;10.978;2022-10-01T03:49:28;18.23;;;12.05;;
23384;SDS011;11865;45.394;10.978;2022-10-01T03:51:55;14.05;;;10.32;;
23384;SDS011;11865;45.394;10.978;2022-10-01T03:54:23;16.88;;;12.43;;
23384;SDS011;11865;45.394;10.978;2022-10-01T03:56:51;20.10;;;13.60;;
23384;SDS011;11865;45.394;10.978;2022-10-01T03:59:18;19.58;;;15.00;;
23384;SDS011;11865;45.394;10.978;2022-10-01T04:01:46;24.08;;;13.70;;
23384;SDS011;11865;45.394;10.978;2022-10-01T04:04:13;27.52;;;16.42;;
23384;SDS011;11865;45.394;10.978;2022-10-01T04:06:41;25.02;;;15.63;;
23384;SDS011;11865;45.394;10.978;2022-10-01T04:09:08;24.20;;;14.98;;
23384;SDS011;11865;45.394;10.978;2022-10-01T04:11:36;23.38;;;15.15;;
23384;SDS011;11865;45.394;10.978;2022-10-01T04:14:05;25.05;;;15.98;;
23384;SDS011;11865;45.394;10.978;2022-10-01T04:16:32;22.05;;;15.00;;
23384;SDS011;11865;45.394;10.978;2022-10-01T04:19:02;26.83;;;15.20;;
23384;SDS011;11865;45.394;10.978;2022-10-01T04:21:30;24.00;;;15.77;;
23384;SDS011;11865;45.394;10.978;2022-10-01T04:23:58;22.25;;;15.65;;
23384;SDS011;11865;45.394;10.978;2022-10-01T04:26:26;25.63;;;15.55;;
23384;SDS011;11865;45.394;10.978;2022-10-01T04:28:54;24.95;;;16.98;;
23384;SDS011;11865;45.394;10.978;2022-10-01T04:31:21;24.02;;;16.55;;
23384;SDS011;11865;45.394;10.978;2022-10-01T04:33:52;25.05;;;15.15;;
23384;SDS011;11865;45.394;10.978;2022-10-01T04:36:21;22.52;;;15.35;;
23384;SDS011;11865;45.394;10.978;2022-10-01T04:38:50;24.02;;;15.18;;
23384;SDS011;11865;45.394;10.978;2022-10-01T04:41:25;32.67;;;17.30;;
23384;SDS011;11865;45.394;10.978;2022-10-01T04:43:52;30.55;;;18.25;;
23384;SDS011;11865;45.394;10.978;2022-10-01T04:46:20;30.80;;;18.88;;
23384;SDS011;11865;45.394;10.978;2022-10-01T04:48:47;26.80;;;16.48;;
23384;SDS011;11865;45.394;10.978;2022-10-01T04:51:15;28.55;;;17.25;;
23384;SDS011;11865;45.394;10.978;2022-10-01T04:53:43;32.83;;;18.83;;
23384;SDS011;11865;45.394;10.978;2022-10-01T04:56:10;25.65;;;16.63;;
23384;SDS011;11865;45.394;10.978;2022-10-01T04:58:38;32.60;;;17.63;;
23384;SDS011;11865;45.394;10.978;2022-10-01T05:01:05;34.20;;;18.13;;
23384;SDS011;11865;45.394;10.978;2022-10-01T05:03:33;30.15;;;17.58;;
23384;SDS011;11865;45.394;10.978;2022-10-01T05:06:01;24.27;;;15.38;;
23384;SDS011;11865;45.394;10.978;2022-10-01T05:08:28;20.58;;;13.23;;
23384;SDS011;11865;45.394;10.978;2022-10-01T05:10:58;20.92;;;14.50;;
23384;SDS011;11865;45.394;10.978;2022-10-01T05:13:26;21.02;;;13.65;;
23384;SDS011;11865;45.394;10.978;2022-10-01T05:15:56;23.33;;;15.15;;
23384;SDS011;11865;45.394;10.978;2022-10-01T05:18:24;22.45;;;16.13;;
23384;SDS011;11865;45.394;10.978;2022-10-01T05:20:51;28.60;;;16.63;;
23384;SDS011;11865;45.394;10.978;2022-10-01T05:23:19;24.52;;;16.48;;
23384;SDS011;11865;45.394;10.978;2022-10-01T05:25:46;24.17;;;17.48;;
23384;SDS011;11865;45.394;10.978;2022-10-01T05:28:14;28.70;;;17.70;;
23384;SDS011;11865;45.394;10.978;2022-10-01T05:30:48;30.38;;;18.02;;
23384;SDS011;11865;45.394;10.978;2022-10-01T05:33:16;25.83;;;18.63;;
23384;SDS011;11865;45.394;10.978;2022-10-01T05:35:44;26.52;;;18.40;;
23384;SDS011;11865;45.394;10.978;2022-10-01T05:38:11;29.02;;;18.40;;
23384;SDS011;11865;45.394;10.978;2022-10-01T05:40:39;29.40;;;18.95;;
23384;SDS011;11865;45.394;10.978;2022-10-01T05:43:12;34.03;;;20.80;;
23384;SDS011;11865;45.394;10.978;2022-10-01T05:45:40;31.17;;;21.67;;
23384;SDS011;11865;45.394;10.978;2022-10-01T05:48:09;27.70;;;20.13;;
23384;SDS011;11865;45.394;10.978;2022-10-01T05:50:38;30.65;;;20.52;;
23384;SDS011;11865;45.394;10.978;2022-10-01T05:53:06;31.75;;;20.83;;
23384;SDS011;11865;45.394;10.978;2022-10-01T05:55:35;32.30;;;21.38;;
23384;SDS011;11865;45.394;10.978;2022-10-01T05:58:07;30.77;;;20.73;;
23384;SDS011;11865;45.394;10.978;2022-10-01T06:00:37;31.15;;;19.73;;
23384;SDS011;11865;45.394;10.978;2022-10-01T06:03:06;32.42;;;20.25;;
23384;SDS011;11865;45.394;10.978;2022-10-01T06:05:34;33.20;;;20.90;;
23384;SDS011;11865;45.394;10.978;2022-10-01T06:08:05;32.08;;;20.73;;
23384;SDS011;11865;45.394;10.978;2022-10-01T06:10:35;27.23;;;19.73;;
23384;SDS011;11865;45.394;10.978;2022-10-01T06:13:04;30.50;;;20.98;;
23384;SDS011;11865;45.394;10.978;2022-10-01T06:15:33;30.55;;;21.02;;
23384;SDS011;11865;45.394;10.978;2022-10-01T06:18:06;32.83;;;21.98;;
23384;SDS011;11865;45.394;10.978;2022-10-01T06:20:34;30.33;;;21.35;;
23384;SDS011;11865;45.394;10.978;2022-10-01T06:23:03;31.63;;;21.98;;
23384;SDS011;11865;45.394;10.978;2022-10-01T06:25:33;33.40;;;22.13;;
23384;SDS011;11865;45.394;10.978;2022-10-01T06:28:02;33.53;;;22.58;;
23384;SDS011;11865;45.394;10.978;2022-10-01T06:30:32;33.72;;;22.83;;
23384;SDS011;11865;45.394;10.978;2022-10-01T06:35:40;40.47;;;24.15;;
23384;SDS011;11865;45.394;10.978;2022-10-01T06:38:09;37.47;;;23.55;;
23384;SDS011;11865;45.394;10.978;2022-10-01T06:40:37;36.30;;;24.23;;
23384;SDS011;11865;45.394;10.978;2022-10-01T06:43:05;38.40;;;24.98;;
23384;SDS011;11865;45.394;10.978;2022-10-01T06:45:35;35.17;;;23.58;;
23384;SDS011;11865;45.394;10.978;2022-10-01T06:48:09;38.55;;;24.02;;
23384;SDS011;11865;45.394;10.978;2022-10-01T06:50:40;37.97;;;24.40;;
23384;SDS011;11865;45.394;10.978;2022-10-01T06:53:09;35.40;;;24.08;;
23384;SDS011;11865;45.394;10.978;2022-10-01T06:55:38;30.73;;;20.58;;
23384;SDS011;11865;45.394;10.978;2022-10-01T06:58:06;29.88;;;19.30;;
23384;SDS011;11865;45.394;10.978;2022-10-01T07:00:38;29.20;;;19.92;;
23384;SDS011;11865;45.394;10.978;2022-10-01T07:03:06;30.90;;;19.83;;
23384;SDS011;11865;45.394;10.978;2022-10-01T07:05:38;30.67;;;19.80;;
23384;SDS011;11865;45.394;10.978;2022-10-01T07:08:06;31.17;;;19.88;;
23384;SDS011;11865;45.394;10.978;2022-10-01T07:10:34;27.83;;;19.67;;
23384;SDS011;11865;45.394;10.978;2022-10-01T07:13:09;25.70;;;18.98;;
23384;SDS011;11865;45.394;10.978;2022-10-01T07:15:38;27.45;;;19.40;;
23384;SDS011;11865;45.394;10.978;2022-10-01T07:18:06;29.02;;;19.10;;
23384;SDS011;11865;45.394;10.978;2022-10-01T07:20:38;31.33;;;19.20;;
23384;SDS011;11865;45.394;10.978;2022-10-01T07:23:08;25.92;;;17.95;;
23384;SDS011;11865;45.394;10.978;2022-10-01T07:25:40;25.42;;;18.08;;
23384;SDS011;11865;45.394;10.978;2022-10-01T07:28:10;25.58;;;17.58;;
23384;SDS011;11865;45.394;10.978;2022-10-01T07:30:55;22.83;;;16.52;;
23384;SDS011;11865;45.394;10.978;2022-10-01T07:33:27;24.25;;;15.93;;
23384;SDS011;11865;45.394;10.978;2022-10-01T07:35:58;20.27;;;13.98;;
23384;SDS011;11865;45.394;10.978;2022-10-01T07:38:27;20.63;;;14.02;;
23384;SDS011;11865;45.394;10.978;2022-10-01T07:40:54;17.50;;;13.00;;
23384;SDS011;11865;45.394;10.978;2022-10-01T07:43:22;21.50;;;13.25;;
23384;SDS011;11865;45.394;10.978;2022-10-01T07:45:49;20.58;;;13.88;;
23384;SDS011;11865;45.394;10.978;2022-10-01T07:48:21;22.05;;;15.18;;
23384;SDS011;11865;45.394;10.978;2022-10-01T07:50:48;20.88;;;14.13;;
23384;SDS011;11865;45.394;10.978;2022-10-01T07:53:16;16.83;;;13.70;;
23384;SDS011;11865;45.394;10.978;2022-10-01T07:55:44;20.02;;;13.75;;
23384;SDS011;11865;45.394;10.978;2022-10-01T07:58:11;19.45;;;13.57;;
23384;SDS011;11865;45.394;10.978;2022-10-01T08:00:39;20.65;;;13.52;;
23384;SDS011;11865;45.394;10.978;2022-10-01T08:03:07;21.10;;;14.68;;
23384;SDS011;11865;45.394;10.978;2022-10-01T08:05:38;22.00;;;14.70;;
23384;SDS011;11865;45.394;10.978;2022-10-01T08:08:06;23.70;;;14.93;;
23384;SDS011;11865;45.394;10.978;2022-10-01T08:10:35;23.35;;;14.15;;
23384;SDS011;11865;45.394;10.978;2022-10-01T08:13:08;20.80;;;14.35;;
23384;SDS011;11865;45.394;10.978;2022-10-01T08:15:41;21.50;;;15.27;;
23384;SDS011;11865;45.394;10.978;2022-10-01T08:18:10;20.75;;;13.85;;
23384;SDS011;11865;45.394;10.978;2022-10-01T08:20:38;21.98;;;13.70;;
23384;SDS011;11865;45.394;10.978;2022-10-01T08:23:07;23.95;;;14.75;;
23384;SDS011;11865;45.394;10.978;2022-10-01T08:25:39;21.20;;;15.10;;
23384;SDS011;11865;45.394;10.978;2022-10-01T08:28:08;21.63;;;15.13;;
23384;SDS011;11865;45.394;10.978;2022-10-01T08:30:37;23.48;;;15.75;;
23384;SDS011;11865;45.394;10.978;2022-10-01T08:33:06;24.42;;;16.25;;
23384;SDS011;11865;45.394;10.978;2022-10-01T08:35:37;24.13;;;16.17;;
23384;SDS011;11865;45.394;10.978;2022-10-01T08:38:05;25.50;;;16.63;;
23384;SDS011;11865;45.394;10.978;2022-10-01T08:40:34;27.85;;;17.15;;
23384;SDS011;11865;45.394;10.978;2022-10-01T08:43:28;28.63;;;18.00;;
23384;SDS011;11865;45.394;10.978;2022-10-01T08:46:10;28.15;;;18.05;;
23384;SDS011;11865;45.394;10.978;2022-10-01T08:48:44;30.80;;;18.88;;
23384;SDS011;11865;45.394;10.978;2022-10-01T08:54:54;31.65;;;20.15;;
23384;SDS011;11865;45.394;10.978;2022-10-01T08:57:14;35.40;;;21.13;;
23384;SDS011;11865;45.394;10.978;2022-10-01T08:59:52;31.92;;;20.88;;
23384;SDS011;11865;45.394;10.978;2022-10-01T09:02:23;32.03;;;21.83;;
23384;SDS011;11865;45.394;10.978;2022-10-01T09:10:59;34.55;;;19.38;;
23384;SDS011;11865;45.394;10.978;2022-10-01T09:16:20;32.28;;;19.05;;
23384;SDS011;11865;45.394;10.978;2022-10-01T09:21:42;28.40;;;18.63;;
23384;SDS011;11865;45.394;10.978;2022-10-01T09:24:27;31.75;;;19.65;;
23384;SDS011;11865;45.394;10.978;2022-10-01T09:27:14;29.48;;;19.75;;
23384;SDS011;11865;45.394;10.978;2022-10-01T09:29:48;34.35;;;21.45;;
23384;SDS011;11865;45.394;10.978;2022-10-01T09:32:25;34.35;;;19.83;;
23384;SDS011;11865;45.394;10.978;2022-10-01T09:34:57;36.33;;;22.92;;
23384;SDS011;11865;45.394;10.978;2022-10-01T09:37:40;35.35;;;21.75;;
23384;SDS011;11865;45.394;10.978;2022-10-01T09:40:34;33.22;;;21.88;;
23384;SDS011;11865;45.394;10.978;2022-10-01T09:43:05;38.25;;;23.65;;
23384;SDS011;11865;45.394;10.978;2022-10-01T09:45:36;36.47;;;22.45;;
23384;SDS011;11865;45.394;10.978;2022-10-01T09:48:40;41.65;;;22.92;;
23384;SDS011;11865;45.394;10.978;2022-10-01T09:51:07;39.33;;;23.73;;
23384;SDS011;11865;45.394;10.978;2022-10-01T09:56:41;44.13;;;22.25;;
23384;SDS011;11865;45.394;10.978;2022-10-01T09:59:17;41.50;;;22.58;;
23384;SDS011;11865;45.394;10.978;2022-10-01T10:01:53;36.20;;;21.50;;
23384;SDS011;11865;45.394;10.978;2022-10-01T10:04:24;37.60;;;21.65;;
23384;SDS011;11865;45.394;10.978;2022-10-01T10:06:59;36.55;;;20.30;;
23384;SDS011;11865;45.394;10.978;2022-10-01T10:09:30;35.60;;;20.27;;
23384;SDS011;11865;45.394;10.978;2022-10-01T10:11:59;33.38;;;18.52;;
23384;SDS011;11865;45.394;10.978;2022-10-01T10:14:31;37.75;;;20.50;;
23384;SDS011;11865;45.394;10.978;2022-10-01T10:17:04;30.63;;;18.63;;
23384;SDS011;11865;45.394;10.978;2022-10-01T10:19:37;32.63;;;17.80;;
23384;SDS011;11865;45.394;10.978;2022-10-01T10:22:20;30.25;;;17.42;;
23384;SDS011;11865;45.394;10.978;2022-10-01T10:24:51;29.42;;;17.92;;
23384;SDS011;11865;45.394;10.978;2022-10-01T10:27:21;29.20;;;17.42;;
23384;SDS011;11865;45.394;10.978;2022-10-01T10:32:42;25.48;;;15.18;;
23384;SDS011;11865;45.394;10.978;2022-10-01T10:35:14;28.05;;;16.65;;
23384;SDS011;11865;45.394;10.978;2022-10-01T10:37:48;23.42;;;15.05;;
23384;SDS011;11865;45.394;10.978;2022-10-01T10:40:20;24.55;;;14.93;;
23384;SDS011;11865;45.394;10.978;2022-10-01T10:42:56;22.30;;;14.90;;
23384;SDS011;11865;45.394;10.978;2022-10-01T10:45:31;27.08;;;13.68;;
23384;SDS011;11865;45.394;10.978;2022-10-01T10:48:03;25.45;;;14.85;;
23384;SDS011;11865;45.394;10.978;2022-10-01T10:50:38;24.33;;;14.07;;
23384;SDS011;11865;45.394;10.978;2022-10-01T10:53:10;21.42;;;13.93;;
23384;SDS011;11865;45.394;10.978;2022-10-01T10:56:00;23.95;;;13.68;;
23384;SDS011;11865;45.394;10.978;2022-10-01T10:58:33;23.80;;;14.27;;
23384;SDS011;11865;45.394;10.978;2022-10-01T11:01:06;19.77;;;12.90;;
23384;SDS011;11865;45.394;10.978;2022-10-01T11:03:43;24.90;;;14.82;;
23384;SDS011;11865;45.394;10.978;2022-10-01T11:06:14;27.00;;;15.48;;
23384;SDS011;11865;45.394;10.978;2022-10-01T11:08:47;28.58;;;15.38;;
23384;SDS011;11865;45.394;10.978;2022-10-01T11:11:31;23.20;;;13.52;;
23384;SDS011;11865;45.394;10.978;2022-10-01T11:27:46;20.73;;;13.38;;
23384;SDS011;11865;45.394;10.978;2022-10-01T11:30:40;22.60;;;13.90;;
23384;SDS011;11865;45.394;10.978;2022-10-01T11:36:24;22.55;;;12.98;;
23384;SDS011;11865;45.394;10.978;2022-10-01T11:39:13;22.55;;;14.65;;
23384;SDS011;11865;45.394;10.978;2022-10-01T11:41:46;22.75;;;15.10;;
23384;SDS011;11865;45.394;10.978;2022-10-01T11:47:17;24.23;;;15.10;;
23384;SDS011;11865;45.394;10.978;2022-10-01T11:50:02;21.77;;;14.97;;
23384;SDS011;11865;45.394;10.978;2022-10-01T11:58:41;21.42;;;15.15;;
23384;SDS011;11865;45.394;10.978;2022-10-01T12:06:54;17.25;;;12.75;;
23384;SDS011;11865;45.394;10.978;2022-10-01T12:09:35;16.08;;;12.07;;
23384;SDS011;11865;45.394;10.978;2022-10-01T12:17:50;16.17;;;12.32;;
23384;SDS011;11865;45.394;10.978;2022-10-01T12:20:28;17.27;;;12.65;;
23384;SDS011;11865;45.394;10.978;2022-10-01T12:23:02;18.42;;;11.93;;
23384;SDS011;11865;45.394;10.978;2022-10-01T12:25:42;19.95;;;12.82;;
23384;SDS011;11865;45.394;10.978;2022-10-01T12:29:01;16.00;;;12.55;;
23384;SDS011;11865;45.394;10.978;2022-10-01T12:34:04;13.23;;;10.07;;
23384;SDS011;11865;45.394;10.978;2022-10-01T12:44:42;14.68;;;9.25;;
23384;SDS011;11865;45.394;10.978;2022-10-01T12:47:34;11.82;;;8.55;;
23384;SDS011;11865;45.394;10.978;2022-10-01T12:50:32;11.63;;;8.73;;
23384;SDS011;11865;45.394;10.978;2022-10-01T12:53:22;13.45;;;9.60;;
23384;SDS011;11865;45.394;10.978;2022-10-01T12:56:14;18.83;;;10.00;;
23384;SDS011;11865;45.394;10.978;2022-10-01T13:06:50;11.63;;;8.85;;
23384;SDS011;11865;45.394;10.978;2022-10-01T13:12:25;13.13;;;9.30;;
23384;SDS011;11865;45.394;10.978;2022-10-01T13:15:03;12.18;;;8.80;;
23384;SDS011;11865;45.394;10.978;2022-10-01T13:30:27;11.40;;;7.00;;
23384;SDS011;11865;45.394;10.978;2022-10-01T13:33:19;7.57;;;5.53;;
23384;SDS011;11865;45.394;10.978;2022-10-01T13:35:56;7.47;;;5.65;;
23384;SDS011;11865;45.394;10.978;2022-10-01T13:38:29;10.25;;;6.93;;
23384;SDS011;11865;45.394;10.978;2022-10-01T13:41:21;12.00;;;6.28;;
23384;SDS011;11865;45.394;10.978;2022-10-01T13:46:48;10.27;;;6.03;;
23384;SDS011;11865;45.394;10.978;2022-10-01T13:49:27;8.90;;;6.13;;
23384;SDS011;11865;45.394;10.978;2022-10-01T13:51:56;8.02;;;5.82;;
23384;SDS011;11865;45.394;10.978;2022-10-01T13:56:54;13.52;;;6.28;;
23384;SDS011;11865;45.394;10.978;2022-10-01T13:59:37;7.13;;;5.55;;
23384;SDS011;11865;45.394;10.978;2022-10-01T14:05:28;7.80;;;5.97;;
23384;SDS011;11865;45.394;10.978;2022-10-01T14:08:18;6.57;;;5.00;;
23384;SDS011;11865;45.394;10.978;2022-10-01T14:11:01;5.82;;;4.45;;
23384;SDS011;11865;45.394;10.978;2022-10-01T14:14:12;5.82;;;4.20;;
23384;SDS011;11865;45.394;10.978;2022-10-01T14:17:06;4.38;;;3.97;;
23384;SDS011;11865;45.394;10.978;2022-10-01T14:19:35;6.00;;;4.28;;
23384;SDS011;11865;45.394;10.978;2022-10-01T14:22:20;5.85;;;3.75;;
23384;SDS011;11865;45.394;10.978;2022-10-01T14:30:41;4.85;;;3.97;;
23384;SDS011;11865;45.394;10.978;2022-10-01T14:36:17;6.18;;;3.85;;
23384;SDS011;11865;45.394;10.978;2022-10-01T14:39:24;5.18;;;3.97;;
23384;SDS011;11865;45.394;10.978;2022-10-01T14:41:56;3.95;;;3.00;;
23384;SDS011;11865;45.394;10.978;2022-10-01T14:44:25;3.25;;;2.95;;
23384;SDS011;11865;45.394;10.978;2022-10-01T14:46:53;3.33;;;2.92;;
23384;SDS011;11865;45.394;10.978;2022-10-01T14:54:28;4.80;;;3.38;;
23384;SDS011;11865;45.394;10.978;2022-10-01T14:57:07;9.63;;;3.30;;
23384;SDS011;11865;45.394;10.978;2022-10-01T14:59:42;6.40;;;4.13;;
23384;SDS011;11865;45.394;10.978;2022-10-01T15:02:21;4.68;;;3.90;;
23384;SDS011;11865;45.394;10.978;2022-10-01T15:04:51;4.80;;;3.35;;
23384;SDS011;11865;45.394;10.978;2022-10-01T15:07:21;6.95;;;4.43;;
23384;SDS011;11865;45.394;10.978;2022-10-01T15:09:51;5.30;;;3.50;;
23384;SDS011;11865;45.394;10.978;2022-10-01T15:12:19;4.63;;;3.58;;
23384;SDS011;11865;45.394;10.978;2022-10-01T15:14:51;5.18;;;3.00;;
23384;SDS011;11865;45.394;10.978;2022-10-01T15:17:23;3.97;;;2.90;;
23384;SDS011;11865;45.394;10.978;2022-10-01T15:19:53;4.40;;;3.17;;
23384;SDS011;11865;45.394;10.978;2022-10-01T15:22:23;8.52;;;3.00;;
23384;SDS011;11865;45.394;10.978;2022-10-01T15:24:56;4.03;;;3.03;;
23384;SDS011;11865;45.394;10.978;2022-10-01T15:27:26;6.60;;;3.03;;
23384;SDS011;11865;45.394;10.978;2022-10-01T15:29:55;8.18;;;2.83;;
23384;SDS011;11865;45.394;10.978;2022-10-01T15:32:24;5.60;;;2.85;;
23384;SDS011;11865;45.394;10.978;2022-10-01T15:34:54;4.22;;;2.85;;
23384;SDS011;11865;45.394;10.978;2022-10-01T15:37:26;4.07;;;3.15;;
23384;SDS011;11865;45.394;10.978;2022-10-01T15:39:58;4.30;;;3.13;;
23384;SDS011;11865;45.394;10.978;2022-10-01T15:42:30;4.35;;;2.90;;
23384;SDS011;11865;45.394;10.978;2022-10-01T15:47:36;5.50;;;2.58;;
23384;SDS011;11865;45.394;10.978;2022-10-01T15:50:23;2.40;;;2.13;;
23384;SDS011;11865;45.394;10.978;2022-10-01T16:01:05;6.05;;;2.60;;
23384;SDS011;11865;45.394;10.978;2022-10-01T16:03:40;2.80;;;2.20;;
23384;SDS011;11865;45.394;10.978;2022-10-01T16:06:28;4.07;;;2.35;;
23384;SDS011;11865;45.394;10.978;2022-10-01T16:09:03;3.17;;;2.20;;
23384;SDS011;11865;45.394;10.978;2022-10-01T16:11:48;3.90;;;2.83;;
23384;SDS011;11865;45.394;10.978;2022-10-01T16:19:43;3.00;;;2.65;;
23384;SDS011;11865;45.394;10.978;2022-10-01T16:22:31;4.40;;;3.30;;
23384;SDS011;11865;45.394;10.978;2022-10-01T16:30:19;4.03;;;3.63;;
23384;SDS011;11865;45.394;10.978;2022-10-01T16:32:47;4.28;;;3.88;;
23384;SDS011;11865;45.394;10.978;2022-10-01T16:35:19;5.40;;;4.15;;
23384;SDS011;11865;45.394;10.978;2022-10-01T16:37:55;5.20;;;3.85;;
23384;SDS011;11865;45.394;10.978;2022-10-01T16:40:24;5.88;;;4.43;;
23384;SDS011;11865;45.394;10.978;2022-10-01T16:42:53;6.60;;;4.53;;
23384;SDS011;11865;45.394;10.978;2022-10-01T16:45:22;5.28;;;4.75;;
23384;SDS011;11865;45.394;10.978;2022-10-01T16:47:52;6.50;;;4.65;;
23384;SDS011;11865;45.394;10.978;2022-10-01T16:50:23;5.05;;;4.53;;
23384;SDS011;11865;45.394;10.978;2022-10-01T16:52:52;5.32;;;4.75;;
23384;SDS011;11865;45.394;10.978;2022-10-01T16:55:22;5.07;;;4.47;;
23384;SDS011;11865;45.394;10.978;2022-10-01T16:57:50;6.18;;;4.60;;
23384;SDS011;11865;45.394;10.978;2022-10-01T17:00:21;6.53;;;4.72;;
23384;SDS011;11865;45.394;10.978;2022-10-01T17:02:52;7.75;;;5.07;;
23384;SDS011;11865;45.394;10.978;2022-10-01T17:05:30;5.57;;;4.95;;
23384;SDS011;11865;45.394;10.978;2022-10-01T17:07:59;6.35;;;5.57;;
23384;SDS011;11865;45.394;10.978;2022-10-01T17:10:28;7.28;;;6.22;;
23384;SDS011;11865;45.394;10.978;2022-10-01T17:12:57;8.38;;;6.15;;
23384;SDS011;11865;45.394;10.978;2022-10-01T17:15:26;9.07;;;6.13;;
23384;SDS011;11865;45.394;10.978;2022-10-01T17:17:54;10.70;;;6.97;;
23384;SDS011;11865;45.394;10.978;2022-10-01T17:20:24;9.25;;;6.57;;
23384;SDS011;11865;45.394;10.978;2022-10-01T17:22:56;8.02;;;6.93;;
23384;SDS011;11865;45.394;10.978;2022-10-01T17:25:29;8.95;;;7.38;;
23384;SDS011;11865;45.394;10.978;2022-10-01T17:28:00;8.88;;;7.15;;
23384;SDS011;11865;45.394;10.978;2022-10-01T17:30:29;12.93;;;7.65;;
23384;SDS011;11865;45.394;10.978;2022-10-01T17:32:58;9.80;;;7.75;;
23384;SDS011;11865;45.394;10.978;2022-10-01T17:35:27;10.35;;;8.18;;